Time;durP1;ratioP1;P1;durP2;ratioP2;P2;SDS_P1;SDS_P2;PMS_P1;PMS_P2;Temp;Humidity;BMP_temperature;BMP_pressure;BME280_temperature;BME280_humidity;BME280_pressure;Samples;Min_cycle;Max_cycle;Signal;HPM_P1;HPM_P2
2021/11/05 00:01:24;;;;;;;5.80;2.70;;;;;;;8.47;60.09;101257.38;4860672;29;20029;-88
2021/11/05 00:03:50;;;;;;;3.95;2.88;;;;;;;8.40;60.42;101260.31;4860981;29;20117;-87
2021/11/05 00:06:15;;;;;;;5.10;2.35;;;;;;;8.31;59.92;101259.81;4860877;29;20569;-87
2021/11/05 00:08:41;;;;;;;5.30;2.42;;;;;;;8.25;60.60;101254.81;4860221;29;20040;-87
2021/11/05 00:11:06;;;;;;;4.90;2.67;;;;;;;8.24;61.13;101261.00;4859440;29;20081;-87
2021/11/05 00:13:31;;;;;;;3.92;2.03;;;;;;;8.20;60.35;101269.06;4860533;29;20166;-87
2021/11/05 00:15:57;;;;;;;3.78;2.20;;;;;;;8.18;60.62;101271.72;4860375;29;20162;-87
2021/11/05 00:18:22;;;;;;;3.22;1.70;;;;;;;8.14;60.53;101276.25;4860439;29;20377;-87
2021/11/05 00:20:48;;;;;;;4.80;2.33;;;;;;;8.10;60.54;101269.44;4860390;29;20040;-87
2021/11/05 00:23:16;;;;;;;5.10;1.77;;;;;;;8.17;60.75;101280.47;4860282;29;20388;-87
2021/11/05 00:25:42;;;;;;;3.70;1.95;;;;;;;8.17;60.68;101272.63;4876525;29;20088;-87
2021/11/05 00:28:07;;;;;;;3.63;1.85;;;;;;;8.21;60.67;101278.59;4878756;29;20116;-87
2021/11/05 00:30:32;;;;;;;3.65;2.13;;;;;;;8.20;61.50;101272.50;4878676;29;20036;-87
2021/11/05 00:32:58;;;;;;;3.33;2.20;;;;;;;8.21;60.50;101263.72;4878467;29;20025;-88
2021/11/05 00:35:23;;;;;;;5.38;2.78;;;;;;;8.25;60.93;101274.91;4878934;29;20036;-87
2021/11/05 00:37:48;;;;;;;5.68;2.88;;;;;;;8.24;61.07;101276.69;4877074;29;20112;-87
2021/11/05 00:40:15;;;;;;;6.75;2.90;;;;;;;8.16;60.59;101267.50;4878786;29;20028;-87
2021/11/05 00:42:41;;;;;;;4.43;2.63;;;;;;;8.16;60.56;101259.66;4878772;29;20017;-87
2021/11/05 00:45:08;;;;;;;4.47;2.65;;;;;;;8.19;61.15;101267.34;4878721;29;20025;-88
2021/11/05 00:47:33;;;;;;;4.88;2.80;;;;;;;8.20;61.12;101266.44;4878815;29;20044;-87
2021/11/05 00:49:59;;;;;;;4.07;2.35;;;;;;;8.08;60.62;101257.38;4878716;29;20037;-88
2021/11/05 00:52:26;;;;;;;5.85;2.80;;;;;;;8.14;60.98;101270.16;4877099;29;20029;-87
2021/11/05 00:54:51;;;;;;;6.38;2.88;;;;;;;8.08;60.74;101271.28;4841727;29;20045;-88
2021/11/05 00:57:16;;;;;;;4.90;3.08;;;;;;;8.10;61.04;101279.06;4841717;29;20034;-87
2021/11/05 00:59:42;;;;;;;5.28;2.95;;;;;;;8.06;60.70;101274.88;4841629;29;20040;-88
2021/11/05 01:02:08;;;;;;;9.23;3.30;;;;;;;8.02;60.54;101279.41;4841635;29;20485;-88
2021/11/05 01:04:34;;;;;;;5.97;2.75;;;;;;;8.00;60.92;101269.91;4841833;29;20034;-88
2021/11/05 01:07:00;;;;;;;9.55;4.30;;;;;;;7.93;60.92;101267.56;4841518;29;20042;-88
2021/11/05 01:09:25;;;;;;;3.47;2.38;;;;;;;7.92;61.37;101271.09;4876313;29;20026;-87
2021/11/05 01:11:51;;;;;;;6.05;2.38;;;;;;;7.90;60.87;101272.94;4878403;29;20428;-87
2021/11/05 01:14:16;;;;;;;4.85;3.40;;;;;;;7.93;61.40;101264.09;4878566;29;20033;-87
2021/11/05 01:16:41;;;;;;;4.25;2.50;;;;;;;7.91;61.15;101273.78;4878589;29;20112;-87
2021/11/05 01:19:07;;;;;;;4.68;2.65;;;;;;;7.97;61.45;101283.13;4878455;29;20035;-88
2021/11/05 01:21:32;;;;;;;4.53;2.47;;;;;;;7.91;61.36;101279.00;4876893;29;20395;-88
2021/11/05 01:23:58;;;;;;;5.80;2.72;;;;;;;8.03;60.63;101294.16;4881869;29;20435;-87
2021/11/05 01:26:23;;;;;;;4.63;2.20;;;;;;;7.89;62.06;101301.75;4881967;29;20036;-87
2021/11/05 01:28:49;;;;;;;5.78;2.50;;;;;;;7.83;62.05;101297.63;4881754;29;20028;-88
2021/11/05 01:31:14;;;;;;;5.38;2.60;;;;;;;7.89;61.96;101297.38;4882164;29;20033;-87
2021/11/05 01:33:40;;;;;;;4.25;2.20;;;;;;;7.87;61.04;101293.97;4881918;29;20065;-88
2021/11/05 01:36:05;;;;;;;4.32;2.80;;;;;;;7.97;61.37;101298.81;4881811;29;20102;-88
2021/11/05 01:38:31;;;;;;;6.57;2.63;;;;;;;8.04;61.21;101292.41;4866998;29;20087;-87
2021/11/05 01:40:56;;;;;;;4.03;2.85;;;;;;;8.09;61.04;101287.81;4863051;29;20036;-88
2021/11/05 01:43:22;;;;;;;4.65;2.30;;;;;;;8.01;61.15;101292.53;4862838;29;20029;-88
2021/11/05 01:45:48;;;;;;;3.60;2.55;;;;;;;7.98;60.82;101301.38;4862989;29;20108;-86
2021/11/05 01:48:14;;;;;;;5.15;2.67;;;;;;;7.93;61.37;101298.09;4862878;29;20109;-88
2021/11/05 01:50:40;;;;;;;4.47;2.20;;;;;;;7.89;61.03;101297.38;4862889;29;20034;-88
2021/11/05 01:53:07;;;;;;;4.18;2.20;;;;;;;7.85;61.57;101295.78;4864551;29;20040;-88
2021/11/05 01:55:32;;;;;;;4.25;2.30;;;;;;;7.84;61.54;101293.25;4863006;29;20029;-88
2021/11/05 01:57:58;;;;;;;5.25;2.35;;;;;;;7.71;62.88;101293.75;4862787;29;20033;-87
2021/11/05 02:00:26;;;;;;;4.20;2.33;;;;;;;7.88;62.76;101298.28;4862552;29;20499;-87
2021/11/05 02:02:51;;;;;;;4.00;2.03;;;;;;;7.95;61.85;101307.56;4862752;29;20097;-88
2021/11/05 02:05:18;;;;;;;3.88;2.60;;;;;;;7.96;62.06;101303.19;4863818;29;20112;-87
2021/11/05 02:07:46;;;;;;;4.97;2.20;;;;;;;7.98;61.67;101300.50;4862323;29;20059;-87
2021/11/05 02:10:12;;;;;;;7.35;2.30;;;;;;;7.95;61.77;101304.94;4862508;29;20048;-88
2021/11/05 02:12:38;;;;;;;4.63;1.77;;;;;;;7.93;61.48;101309.38;4862526;29;20461;-88
2021/11/05 02:15:06;;;;;;;2.50;1.65;;;;;;;8.04;61.84;101303.72;4863978;29;20109;-88
2021/11/05 02:17:34;;;;;;;3.08;1.58;;;;;;;8.03;61.64;101283.69;4862643;29;20049;-88
2021/11/05 02:20:01;;;;;;;4.43;1.85;;;;;;;8.02;61.52;101294.25;4862640;29;20030;-87
2021/11/05 02:22:26;;;;;;;5.90;1.88;;;;;;;8.04;61.69;101289.81;4878080;29;20036;-87
2021/11/05 02:24:54;;;;;;;4.38;1.70;;;;;;;8.04;61.50;101295.88;4880923;29;20543;-87
2021/11/05 02:27:19;;;;;;;3.45;1.80;;;;;;;8.02;61.38;101292.47;4881133;29;20108;-87
2021/11/05 02:29:45;;;;;;;4.05;1.60;;;;;;;7.97;61.22;101280.50;4881547;29;20555;-87
2021/11/05 02:32:10;;;;;;;3.80;1.50;;;;;;;7.87;61.70;101286.13;4880864;29;20033;-87
2021/11/05 02:34:36;;;;;;;2.90;2.05;;;;;;;7.78;61.42;101289.16;4879682;29;20029;-87
2021/11/05 02:37:03;;;;;;;4.03;2.00;;;;;;;7.80;62.05;101289.94;4863356;29;20033;-87
2021/11/05 02:39:30;;;;;;;5.13;2.50;;;;;;;7.73;60.95;101284.09;4862675;29;20132;-87
2021/11/05 02:41:56;;;;;;;4.53;2.75;;;;;;;7.67;61.41;101286.13;4860810;29;20098;-87
2021/11/05 02:44:22;;;;;;;5.00;3.22;;;;;;;7.64;61.42;101292.34;4861975;29;20105;-87
2021/11/05 02:46:48;;;;;;;7.25;2.40;;;;;;;7.61;61.37;101299.44;4861987;29;20029;-87
2021/11/05 02:49:16;;;;;;;3.97;2.70;;;;;;;7.56;61.23;101299.63;4862026;29;20032;-87
2021/11/05 02:51:43;;;;;;;3.58;1.77;;;;;;;7.54;61.31;101302.31;4875671;29;20025;-87
2021/11/05 02:54:09;;;;;;;3.80;1.98;;;;;;;7.50;61.43;101298.13;4880542;29;20033;-87
2021/11/05 02:56:35;;;;;;;2.97;1.80;;;;;;;7.48;60.89;101302.53;4880741;29;20094;-87
2021/11/05 02:59:01;;;;;;;2.35;1.52;;;;;;;7.48;61.25;101310.38;4880428;29;20084;-87
2021/11/05 03:01:27;;;;;;;2.63;1.90;;;;;;;7.47;60.98;101313.94;4880655;29;20037;-88
2021/11/05 03:03:57;;;;;;;3.40;1.83;;;;;;;7.46;61.78;101314.81;4882802;29;20125;-87
2021/11/05 03:06:23;;;;;;;4.20;1.48;;;;;;;7.43;61.24;101304.50;4861968;29;20493;-87
2021/11/05 03:08:48;;;;;;;2.88;2.00;;;;;;;7.39;61.23;101308.16;4861617;29;20026;-87
2021/11/05 03:11:13;;;;;;;2.90;1.85;;;;;;;7.42;61.01;101315.00;4861789;29;20037;-88
2021/11/05 03:13:43;;;;;;;3.25;1.50;;;;;;;7.37;61.65;101309.97;4861488;29;20388;-87
2021/11/05 03:16:11;;;;;;;2.83;1.80;;;;;;;7.49;60.68;101319.94;4861446;29;20393;-87
2021/11/05 03:18:40;;;;;;;6.07;1.80;;;;;;;7.53;61.57;101321.50;4863644;29;20036;-87
2021/11/05 03:21:07;;;;;;;4.82;1.55;;;;;;;7.50;61.34;101321.66;4879895;29;20081;-87
2021/11/05 03:23:33;;;;;;;2.95;1.63;;;;;;;7.44;62.02;101324.47;4879794;29;20025;-87
2021/11/05 03:25:58;;;;;;;4.93;1.73;;;;;;;7.62;61.63;101329.88;4879743;29;20025;-87
2021/11/05 03:28:23;;;;;;;3.10;2.15;;;;;;;7.80;60.83;101329.16;4879902;29;20493;-87
2021/11/05 03:30:49;;;;;;;4.80;2.33;;;;;;;7.60;61.39;101322.09;4879664;29;20029;-87
2021/11/05 03:33:15;;;;;;;2.78;1.95;;;;;;;7.67;61.67;101333.19;4879566;29;20037;-87
2021/11/05 03:35:40;;;;;;;5.07;1.98;;;;;;;7.65;62.02;101324.53;4862660;29;20057;-87
2021/11/05 03:38:05;;;;;;;3.63;2.28;;;;;;;7.64;61.34;101336.78;4859937;29;20033;-87
2021/11/05 03:40:33;;;;;;;3.60;2.10;;;;;;;7.63;60.91;101342.06;4860886;29;20036;-88
2021/11/05 03:42:59;;;;;;;7.65;2.22;;;;;;;7.62;61.49;101335.13;4862434;29;20033;-87
2021/11/05 03:45:24;;;;;;;3.60;2.30;;;;;;;7.78;61.29;101341.44;4860664;29;20036;-87
2021/11/05 03:47:50;;;;;;;2.80;1.80;;;;;;;7.62;61.38;101340.34;4860790;29;20037;-87
2021/11/05 03:50:15;;;;;;;3.58;2.35;;;;;;;7.54;61.23;101336.28;4861077;29;20055;-87
2021/11/05 03:52:41;;;;;;;3.17;1.65;;;;;;;7.58;61.18;101346.59;4861269;29;20399;-88
2021/11/05 03:55:07;;;;;;;2.90;1.83;;;;;;;7.55;61.28;101345.81;4860948;29;20544;-88
2021/11/05 03:57:33;;;;;;;5.30;2.10;;;;;;;7.61;61.94;101355.19;4865185;29;20116;-87
2021/11/05 03:59:58;;;;;;;3.53;1.70;;;;;;;7.62;62.03;101350.78;4879107;29;20104;-87
2021/11/05 04:02:24;;;;;;;5.53;2.53;;;;;;;7.56;61.28;101354.50;4877284;29;20392;-87
2021/11/05 04:04:49;;;;;;;4.30;2.20;;;;;;;7.58;61.81;101357.06;4879514;29;20025;-87
2021/11/05 04:07:15;;;;;;;4.93;3.25;;;;;;;7.51;62.46;101349.47;4879307;29;20029;-87
2021/11/05 04:09:40;;;;;;;3.50;2.00;;;;;;;7.58;62.22;101351.84;4879118;29;20666;-87
2021/11/05 04:12:06;;;;;;;4.53;2.53;;;;;;;7.64;62.70;101348.97;4879084;29;20044;-87
2021/11/05 04:14:32;;;;;;;3.53;2.35;;;;;;;7.72;63.14;101350.38;4877292;29;20116;-87
2021/11/05 04:16:57;;;;;;;3.53;2.60;;;;;;;7.79;62.50;101353.56;4878637;29;20029;-87
2021/11/05 04:19:22;;;;;;;3.13;1.98;;;;;;;7.82;62.60;101348.25;4879036;29;20108;-87
2021/11/05 04:21:48;;;;;;;4.63;2.28;;;;;;;7.99;62.98;101362.38;4877757;29;20044;-87
2021/11/05 04:24:13;;;;;;;3.40;2.08;;;;;;;8.02;62.15;101351.78;4879035;29;20460;-87
2021/11/05 04:26:39;;;;;;;5.15;2.40;;;;;;;8.08;62.88;101364.59;4878922;29;20061;-87
2021/11/05 04:29:05;;;;;;;5.68;2.30;;;;;;;8.08;63.06;101367.22;4872100;29;20042;-88
2021/11/05 04:31:30;;;;;;;3.72;2.03;;;;;;;8.08;62.46;101368.06;4859808;29;20038;-87
2021/11/05 04:33:56;;;;;;;5.43;2.20;;;;;;;8.02;62.56;101376.16;4860129;29;20069;-88
2021/11/05 04:36:22;;;;;;;4.38;2.45;;;;;;;8.05;62.33;101380.41;4860258;29;20074;-88
2021/11/05 04:38:50;;;;;;;4.63;2.70;;;;;;;8.05;62.85;101386.47;4860243;29;20026;-88
2021/11/05 04:41:16;;;;;;;3.65;2.78;;;;;;;8.00;62.54;101392.81;4860147;29;20081;-87
2021/11/05 04:43:41;;;;;;;4.32;2.60;;;;;;;8.05;62.75;101390.88;4860540;29;20033;-88
2021/11/05 04:46:07;;;;;;;4.50;2.92;;;;;;;8.10;63.20;101396.78;4860997;29;20041;-88
2021/11/05 04:48:33;;;;;;;7.50;3.00;;;;;;;8.14;62.21;101403.59;4860265;29;20037;-88
2021/11/05 04:50:58;;;;;;;6.82;3.25;;;;;;;8.17;62.52;101402.59;4858802;29;20032;-88
2021/11/05 04:53:23;;;;;;;5.05;3.50;;;;;;;8.24;62.85;101401.44;4858747;29;20028;-88
2021/11/05 04:55:49;;;;;;;8.07;4.13;;;;;;;8.22;61.80;101404.09;4860247;29;20036;-88
2021/11/05 04:58:14;;;;;;;7.85;3.88;;;;;;;8.13;62.24;101407.94;4862758;29;20035;-88
2021/11/05 05:00:40;;;;;;;6.72;3.63;;;;;;;8.28;62.08;101414.31;4875027;29;20033;-89
2021/11/05 05:03:05;;;;;;;7.40;3.33;;;;;;;8.42;62.39;101415.53;4865967;29;20043;-89
2021/11/05 05:05:31;;;;;;;6.22;3.33;;;;;;;8.56;62.05;101413.16;4863437;29;20033;-88
2021/11/05 05:07:57;;;;;;;4.75;3.22;;;;;;;8.64;62.06;101416.28;4863736;29;20022;-88
2021/11/05 05:10:23;;;;;;;5.40;3.33;;;;;;;8.67;61.67;101421.41;4863686;29;20453;-88
2021/11/05 05:12:48;;;;;;;5.07;3.13;;;;;;;8.71;60.92;101422.97;4863496;29;20053;-89
2021/11/05 05:15:15;;;;;;;8.90;3.70;;;;;;;8.63;61.16;101419.84;4863695;29;20070;-89
2021/11/05 05:17:41;;;;;;;6.78;3.72;;;;;;;8.70;61.19;101416.00;4874025;29;20061;-88
2021/11/05 05:20:09;;;;;;;4.88;3.13;;;;;;;8.69;61.13;101409.09;4882284;29;20056;-88
2021/11/05 05:22:36;;;;;;;5.75;3.20;;;;;;;8.77;61.09;101410.50;4882137;29;20024;-89
2021/11/05 05:25:04;;;;;;;6.60;4.07;;;;;;;8.69;61.50;101421.34;4881805;29;20029;-89
2021/11/05 05:27:30;;;;;;;6.03;3.22;;;;;;;8.64;60.62;101421.53;4881904;29;20029;-89
2021/11/05 05:29:56;;;;;;;4.93;3.45;;;;;;;8.62;61.19;101415.50;4881824;29;20036;-89
2021/11/05 05:32:22;;;;;;;6.38;3.50;;;;;;;8.58;60.55;101421.78;4871099;29;20034;-88
2021/11/05 05:34:47;;;;;;;6.57;3.35;;;;;;;8.53;60.94;101432.47;4862932;29;20082;-89
2021/11/05 05:37:13;;;;;;;5.57;3.75;;;;;;;8.52;61.04;101429.91;4863180;29;20030;-88
2021/11/05 05:39:38;;;;;;;8.43;3.13;;;;;;;8.43;60.50;101430.28;4863092;29;20026;-89
2021/11/05 05:42:04;;;;;;;7.80;4.22;;;;;;;8.46;60.52;101438.03;4863043;29;20033;-89
2021/11/05 05:44:29;;;;;;;6.43;3.00;;;;;;;8.31;60.62;101435.13;4862925;29;20069;-89
2021/11/05 05:46:55;;;;;;;4.47;2.80;;;;;;;8.25;60.54;101443.19;4863934;29;20401;-89
2021/11/05 05:49:20;;;;;;;6.60;3.60;;;;;;;8.22;60.37;101443.34;4862629;29;20105;-89
2021/11/05 05:51:45;;;;;;;5.75;3.42;;;;;;;8.28;61.14;101453.56;4862820;29;20092;-89
2021/11/05 05:54:11;;;;;;;6.80;3.20;;;;;;;8.27;60.56;101448.38;4861862;29;20038;-88
2021/11/05 05:56:36;;;;;;;5.90;2.95;;;;;;;8.23;60.88;101450.25;4862666;29;20033;-89
2021/11/05 05:59:02;;;;;;;4.20;2.78;;;;;;;8.22;60.69;101450.34;4862616;29;20120;-88
2021/11/05 06:01:28;;;;;;;4.50;3.05;;;;;;;8.26;60.69;101449.31;4863431;29;20249;-88
2021/11/05 06:03:53;;;;;;;7.25;3.67;;;;;;;8.27;60.48;101449.25;4862314;29;20065;-89
2021/11/05 06:06:19;;;;;;;6.00;2.80;;;;;;;8.28;60.77;101456.16;4862398;29;20068;-89
2021/11/05 06:08:44;;;;;;;6.15;3.13;;;;;;;8.26;60.46;101463.22;4862622;29;20029;-88
2021/11/05 06:11:10;;;;;;;4.47;2.92;;;;;;;8.25;60.42;101466.75;4862453;29;20021;-88
2021/11/05 06:13:35;;;;;;;6.13;3.05;;;;;;;8.23;61.16;101468.59;4862466;29;20033;-88
2021/11/05 06:16:01;;;;;;;6.20;2.55;;;;;;;8.23;60.96;101481.66;4862639;29;20463;-88
2021/11/05 06:18:27;;;;;;;4.97;2.78;;;;;;;8.21;60.94;101486.09;4862479;29;20034;-88
2021/11/05 06:20:53;;;;;;;6.20;3.70;;;;;;;8.23;61.23;101489.50;4862667;29;20048;-88
2021/11/05 06:23:18;;;;;;;6.82;3.10;;;;;;;8.30;61.01;101488.34;4863031;29;20048;-89
2021/11/05 06:25:44;;;;;;;5.80;3.13;;;;;;;8.28;60.89;101490.19;4863148;29;20061;-88
2021/11/05 06:28:09;;;;;;;7.88;2.95;;;;;;;8.26;61.15;101492.00;4862883;29;20030;-88
2021/11/05 06:30:34;;;;;;;4.55;2.65;;;;;;;8.22;61.01;101490.44;4861025;29;20034;-88
2021/11/05 06:33:01;;;;;;;6.18;2.58;;;;;;;8.24;61.18;101493.84;4863148;29;20033;-89
2021/11/05 06:35:28;;;;;;;4.97;2.65;;;;;;;8.17;60.98;101484.53;4873691;29;20013;-88
2021/11/05 06:37:54;;;;;;;4.97;2.30;;;;;;;8.18;61.00;101501.94;4884701;29;20053;-88
2021/11/05 06:40:20;;;;;;;4.45;2.00;;;;;;;8.20;60.93;101499.28;4884597;29;20457;-89
2021/11/05 06:42:45;;;;;;;4.30;2.13;;;;;;;8.25;61.19;101499.91;4884564;29;20090;-88
2021/11/05 06:45:11;;;;;;;3.17;1.80;;;;;;;8.27;61.66;101508.56;4884624;29;20041;-88
2021/11/05 06:47:37;;;;;;;4.53;1.80;;;;;;;8.26;61.39;101502.47;4887122;29;20036;-89
2021/11/05 06:50:05;;;;;;;5.28;1.80;;;;;;;8.30;62.07;101506.69;4902750;29;20040;-89
2021/11/05 06:52:30;;;;;;;3.53;2.00;;;;;;;8.29;61.65;101505.00;4902660;29;20031;-89
2021/11/05 06:54:56;;;;;;;4.28;1.95;;;;;;;8.41;61.67;101500.16;4902376;29;20021;-88
2021/11/05 06:57:21;;;;;;;5.05;2.28;;;;;;;8.40;62.11;101512.38;4902088;29;20085;-88
2021/11/05 06:59:47;;;;;;;4.90;2.95;;;;;;;8.44;62.35;101519.22;4888925;29;20021;-93
2021/11/05 07:02:12;;;;;;;4.85;2.60;;;;;;;8.51;61.88;101519.81;4883860;29;20038;-92
2021/11/05 07:04:37;;;;;;;8.02;2.75;;;;;;;8.48;61.63;101526.03;4882338;29;20053;-90
2021/11/05 07:07:03;;;;;;;6.15;2.50;;;;;;;8.51;61.92;101527.66;4881501;29;20038;-90
2021/11/05 07:09:28;;;;;;;5.60;2.45;;;;;;;8.47;61.72;101526.97;4875391;29;20021;-89
2021/11/05 07:11:54;;;;;;;3.28;2.10;;;;;;;8.46;61.77;101527.88;4862629;29;20085;-89
2021/11/05 07:14:19;;;;;;;1.83;1.50;;;;;;;8.43;61.60;101527.13;4862127;29;20029;-89
2021/11/05 07:16:45;;;;;;;4.80;2.08;;;;;;;8.41;61.69;101528.94;4868424;29;20125;-90
2021/11/05 07:19:11;;;;;;;2.28;1.45;;;;;;;8.34;61.32;101526.56;4875843;29;20033;-89
2021/11/05 07:21:37;;;;;;;3.25;1.50;;;;;;;8.36;61.66;101538.75;4861937;29;20025;-90
2021/11/05 07:24:03;;;;;;;2.58;1.42;;;;;;;8.33;61.58;101532.72;4860621;29;20417;-90
2021/11/05 07:26:46;;;;;;;6.80;1.38;;;;;;;8.29;61.54;101531.16;4861598;29;20058;-96
2021/11/05 07:29:12;;;;;;;3.88;1.15;;;;;;;8.29;61.24;101541.63;4862165;29;20177;-96
2021/11/05 07:31:39;;;;;;;2.70;1.58;;;;;;;8.28;61.86;101545.13;4862467;29;20194;-95
2021/11/05 07:34:05;;;;;;;4.22;1.30;;;;;;;8.25;61.73;101545.25;4859696;29;20029;-96
2021/11/05 07:36:31;;;;;;;2.22;1.25;;;;;;;8.30;61.71;101547.69;4862614;29;20530;-95
2021/11/05 07:38:57;;;;;;;2.13;1.63;;;;;;;8.35;61.90;101558.81;4865719;29;20030;-96
2021/11/05 07:41:26;;;;;;;3.67;1.35;;;;;;;8.40;62.78;101563.88;4894957;29;20040;-96
2021/11/05 07:43:52;;;;;;;2.58;1.10;;;;;;;8.46;61.92;101567.13;4872433;29;20049;-94
2021/11/05 07:46:18;;;;;;;3.90;1.70;;;;;;;8.54;61.91;101574.66;4861663;29;20022;-93
2021/11/05 07:48:44;;;;;;;6.72;2.05;;;;;;;8.65;62.12;101569.84;4862675;29;20033;-93
2021/11/05 07:51:09;;;;;;;3.15;1.77;;;;;;;8.68;61.94;101577.56;4861195;29;20033;-91
2021/11/05 07:53:35;;;;;;;2.97;1.67;;;;;;;8.73;62.33;101586.09;4861057;29;20089;-93
2021/11/05 07:56:00;;;;;;;6.25;2.15;;;;;;;8.86;62.24;101578.56;4856438;29;20029;-92
2021/11/05 07:58:26;;;;;;;5.65;2.15;;;;;;;9.02;61.35;101589.25;4864404;29;20066;-95
2021/11/05 08:00:51;;;;;;;3.65;1.98;;;;;;;9.09;61.84;101585.47;4869943;29;20105;-92
2021/11/05 08:03:17;;;;;;;3.85;2.05;;;;;;;9.13;61.08;101589.66;4860796;29;20037;-96
2021/11/05 08:05:43;;;;;;;2.97;1.70;;;;;;;9.16;61.36;101595.66;4857257;29;20203;-96
2021/11/05 08:08:09;;;;;;;2.53;1.90;;;;;;;9.15;61.23;101599.22;4860953;29;20097;-96
2021/11/05 08:10:35;;;;;;;2.92;1.98;;;;;;;9.20;61.11;101597.25;4859967;29;20026;-96
2021/11/05 08:13:00;;;;;;;3.92;2.00;;;;;;;9.16;61.56;101596.50;4861621;29;20053;-96
2021/11/05 08:15:26;;;;;;;4.15;1.90;;;;;;;9.19;60.89;101603.41;4860990;29;20025;-95
2021/11/05 08:17:51;;;;;;;4.57;1.75;;;;;;;9.19;61.44;101600.78;4866738;29;20576;-96
2021/11/05 08:20:17;;;;;;;4.38;1.40;;;;;;;9.22;61.08;101603.25;4863452;29;20033;-95
2021/11/05 08:22:44;;;;;;;5.32;2.38;;;;;;;9.26;61.72;101608.31;4864392;29;20162;-95
2021/11/05 08:25:11;;;;;;;3.35;1.27;;;;;;;9.30;61.63;101604.66;4862492;29;20029;-95
2021/11/05 08:27:38;;;;;;;5.90;1.40;;;;;;;9.39;61.80;101605.16;4865626;29;20582;-94
2021/11/05 08:30:06;;;;;;;4.57;1.40;;;;;;;9.41;61.78;101603.31;4861122;29;20056;-92
2021/11/05 08:32:31;;;;;;;5.38;1.65;;;;;;;9.45;62.17;101605.75;4879613;29;20022;-96
2021/11/05 08:34:57;;;;;;;4.63;1.60;;;;;;;9.57;62.02;101606.97;4868489;29;20025;-95
2021/11/05 08:37:22;;;;;;;2.80;1.20;;;;;;;9.65;62.22;101606.63;4884506;29;20025;-96
2021/11/05 08:39:47;;;;;;;4.13;1.67;;;;;;;9.75;61.14;101607.91;4872221;29;20040;-95
2021/11/05 08:42:13;;;;;;;4.22;1.65;;;;;;;9.94;62.74;101607.94;4864625;29;20315;-96
2021/11/05 08:44:39;;;;;;;5.30;1.58;;;;;;;10.11;61.79;101617.63;4862152;29;20029;-95
2021/11/05 08:47:04;;;;;;;2.70;1.50;;;;;;;10.23;61.73;101610.94;4860232;29;20085;-96
2021/11/05 08:49:30;;;;;;;5.60;1.80;;;;;;;10.45;61.91;101616.94;4860026;29;20045;-96
2021/11/05 08:51:56;;;;;;;4.35;1.92;;;;;;;10.57;61.52;101619.91;4861810;29;20029;-96
2021/11/05 08:54:21;;;;;;;4.20;2.10;;;;;;;10.62;61.87;101623.97;4862379;29;20033;-95
2021/11/05 08:56:47;;;;;;;7.78;2.13;;;;;;;10.83;62.07;101619.47;4861658;29;20055;-96
2021/11/05 08:59:15;;;;;;;3.03;1.80;;;;;;;10.97;61.64;101613.50;4862155;29;20417;-95
2021/11/05 09:01:41;;;;;;;9.68;2.30;;;;;;;11.67;62.02;101614.28;4863696;29;20033;-96
2021/11/05 09:04:08;;;;;;;6.28;1.70;;;;;;;12.64;60.77;101608.97;4863167;29;20033;-96
2021/11/05 09:06:34;;;;;;;7.40;1.58;;;;;;;13.66;59.29;101617.00;4862254;29;20033;-96
2021/11/05 09:09:00;;;;;;;3.30;1.10;;;;;;;14.62;57.22;101622.38;4861949;29;20025;-96
2021/11/05 09:11:28;;;;;;;4.85;1.20;;;;;;;15.45;53.19;101619.44;4862623;29;20125;-96
2021/11/05 09:13:54;;;;;;;4.40;1.48;;;;;;;16.36;52.36;101613.03;4861744;29;20108;-96
2021/11/05 09:16:19;;;;;;;3.60;1.60;;;;;;;17.60;50.14;101609.91;4865342;29;20057;-95
2021/11/05 09:18:45;;;;;;;6.32;1.67;;;;;;;18.36;48.26;101618.06;4862340;29;20065;-96
2021/11/05 09:21:11;;;;;;;4.20;1.58;;;;;;;18.61;46.57;101616.88;4860763;29;20085;-95
2021/11/05 09:23:37;;;;;;;3.78;1.83;;;;;;;18.50;45.58;101627.56;4862023;29;20030;-96
2021/11/05 09:26:02;;;;;;;4.10;1.63;;;;;;;18.16;46.27;101619.66;4886413;29;20045;-96
2021/11/05 09:28:28;;;;;;;6.22;2.08;;;;;;;18.85;45.32;101624.66;4896552;29;20030;-96
2021/11/05 09:38:39;;;;;;;6.47;1.98;;;;;;;19.93;43.85;101628.78;4328475;23;20053;-94
2021/11/05 09:41:05;;;;;;;8.82;2.25;;;;;;;21.00;42.28;101632.41;4878595;29;20108;-94
2021/11/05 09:43:31;;;;;;;6.18;1.75;;;;;;;21.94;38.46;101631.59;4864516;29;20072;-94
2021/11/05 09:45:57;;;;;;;4.90;1.17;;;;;;;22.34;40.06;101637.56;4861763;29;20061;-92
2021/11/05 09:48:23;;;;;;;5.85;1.75;;;;;;;22.54;38.32;101636.44;4860255;29;20033;-95
2021/11/05 09:50:48;;;;;;;3.85;1.58;;;;;;;23.44;36.79;101635.44;4861616;29;20046;-95
2021/11/05 09:53:14;;;;;;;6.57;1.27;;;;;;;23.58;37.72;101637.56;4861980;29;20033;-94
2021/11/05 09:55:45;;;;;;;5.82;1.33;;;;;;;24.40;35.87;101645.09;4874184;29;20057;-96
2021/11/05 09:58:11;;;;;;;7.50;2.42;;;;;;;24.66;35.17;101648.50;4865475;29;20030;-96
2021/11/05 10:00:37;;;;;;;4.63;1.30;;;;;;;25.43;34.43;101647.28;4870885;29;20040;-96
2021/11/05 10:03:03;;;;;;;6.22;1.38;;;;;;;25.17;34.17;101652.84;4865347;29;20500;-96
2021/11/05 10:05:28;;;;;;;7.15;1.95;;;;;;;25.38;34.26;101650.50;4869830;29;20033;-96
2021/11/05 10:07:56;;;;;;;4.28;2.00;;;;;;;25.21;34.48;101652.34;4882499;29;20021;-96
2021/11/05 10:10:33;;;;;;;5.68;1.92;;;;;;;25.75;33.98;101643.66;4881007;29;20033;-96
2021/11/05 10:13:04;;;;;;;6.30;1.60;;;;;;;26.08;33.01;101655.13;4881128;29;20089;-96
2021/11/05 10:15:43;;;;;;;6.15;1.52;;;;;;;26.51;32.84;101655.53;4876006;29;20188;-96
2021/11/05 10:18:17;;;;;;;9.07;1.88;;;;;;;25.93;33.45;101656.91;4879423;29;20049;-96
2021/11/05 10:20:45;;;;;;;5.55;2.03;;;;;;;25.06;34.02;101668.31;4882072;29;20061;-96
2021/11/05 10:23:11;;;;;;;8.80;2.60;;;;;;;24.59;34.57;101673.50;4879691;29;20040;-96
2021/11/05 10:25:38;;;;;;;5.63;1.85;;;;;;;24.43;34.59;101669.75;4874950;29;20037;-95
2021/11/05 10:28:15;;;;;;;6.60;2.10;;;;;;;23.45;36.80;101674.69;4862761;29;20059;-95
2021/11/05 10:30:52;;;;;;;6.55;2.20;;;;;;;24.26;35.66;101674.22;4862487;29;20036;-95
2021/11/05 10:33:20;;;;;;;10.00;2.33;;;;;;;23.83;36.79;101672.56;4859688;29;20516;-95
2021/11/05 10:35:49;;;;;;;7.43;2.35;;;;;;;23.78;36.38;101666.84;4861226;29;20033;-94
2021/11/05 10:38:16;;;;;;;7.18;2.20;;;;;;;23.83;36.49;101667.19;4859011;29;20131;-94
2021/11/05 10:40:45;;;;;;;15.15;2.95;;;;;;;24.25;35.97;101671.69;4860113;29;20030;-94
2021/11/05 10:43:13;;;;;;;4.85;1.92;;;;;;;24.52;36.84;101663.41;4863383;29;20104;-95
2021/11/05 10:45:39;;;;;;;4.30;1.80;;;;;;;25.24;35.37;101672.72;4860844;29;20069;-94
2021/11/05 10:48:15;;;;;;;7.53;1.67;;;;;;;24.76;35.74;101675.19;4860694;29;20033;-95
2021/11/05 10:50:50;;;;;;;4.53;1.42;;;;;;;24.76;34.82;101668.97;4861650;29;20033;-95
2021/11/05 10:53:23;;;;;;;5.53;1.50;;;;;;;24.55;34.91;101673.00;4861017;29;20018;-94
2021/11/05 10:56:04;;;;;;;5.65;1.40;;;;;;;23.73;36.77;101675.31;4857219;29;20484;-95
2021/11/05 10:58:49;;;;;;;6.53;1.38;;;;;;;23.84;36.96;101671.56;4858140;29;20041;-94
2021/11/05 11:01:16;;;;;;;4.45;1.38;;;;;;;23.96;36.65;101664.91;4854868;29;20041;-95
2021/11/05 11:03:50;;;;;;;3.70;1.50;;;;;;;23.89;37.30;101664.69;4860381;29;20105;-93
2021/11/05 11:06:34;;;;;;;3.85;1.10;;;;;;;23.67;36.33;101679.47;4864035;29;20025;-94
2021/11/05 11:09:09;;;;;;;5.38;1.20;;;;;;;23.26;37.42;101671.22;4861501;29;20049;-94
2021/11/05 11:11:38;;;;;;;6.75;1.40;;;;;;;22.91;38.15;101667.56;4861758;29;20022;-94
2021/11/05 11:14:08;;;;;;;8.27;1.67;;;;;;;22.32;39.23;101672.50;4864869;29;20029;-96
2021/11/05 11:16:40;;;;;;;5.43;1.50;;;;;;;22.26;39.75;101674.94;4873197;29;20025;-96
2021/11/05 11:19:12;;;;;;;6.88;2.00;;;;;;;22.55;39.51;101675.59;4887330;29;20036;-96
2021/11/05 11:21:40;;;;;;;11.45;1.92;;;;;;;22.97;38.86;101669.63;4878855;29;20042;-96
2021/11/05 11:24:09;;;;;;;6.75;1.70;;;;;;;23.49;39.09;101670.69;4876697;29;20044;-96
2021/11/05 11:26:36;;;;;;;8.63;2.28;;;;;;;23.82;37.71;101670.91;4873472;29;20069;-96
2021/11/05 11:29:03;;;;;;;6.25;1.75;;;;;;;24.43;36.83;101677.81;4869333;29;20037;-96
2021/11/05 11:31:29;;;;;;;2.88;1.70;;;;;;;25.13;35.50;101677.38;4878894;29;20042;-96
2021/11/05 11:34:01;;;;;;;8.75;2.25;;;;;;;24.66;36.01;101679.88;4876015;29;20037;-96
2021/11/05 11:36:27;;;;;;;3.92;1.73;;;;;;;24.81;36.05;101675.53;4892717;29;20029;-96